Pemaquid Point Lighthouse, ME

43° 50' 13"N, 69° 30' 22"W, Elevation 40 ft.
Eastern Time

Hourly observations for the last 72 hours

Date Time Temperature (°F) Humi-
dity

(%)
Wind
(mph)
Pressure Rain (in) Sun
(W/m2)
UV ET
(in)
Air Dew 6 Hour 1 Hr 3 Hr 6 Hr Day
Alt
(in)
Sea
Level

(mb)
Max Min
17 07:00 60.6 55.4 83 NNW 8 G 15 29.87 1011.6 0.00 35 0.0 0.001
17 06:00 58.7 55.8 90 NW 9 G 19 29.85 1010.9 0.00 69 0.0 0.000
17 05:00 58.2 57.1 96 NW 10 G 18 29.83 1010.1 0.00 5 0.0 0.000
17 04:00 60.2 59.1 96 NW 6 G 10 29.79 1008.7 0.00 0 0.0 0.000
17 03:00 57.8 56.7 96 N 3 G 6 29.77 1008.3 0.00 0 0.0 0.000
17 02:00 56.4 55.0 57.5 54.7 95 ESE 0 G 1 29.78 1008.6 0.00 0 0.0 0.000
17 01:00 55.7 54.6 96 ESE 0 G 1 29.80 1009.2 0.00 0 0.0 0.000
17 00:00 55.9 54.8 96 ESE 0 G 1 29.80 1009.2 0.00 0 0.0 0.060
16 23:00 55.0 53.6 95 E 3 G 6 29.79 1008.9 0.00 0 0.0 0.060
16 22:00 57.1 56.0 96 SSW 1 G 2 29.81 1009.6 0.00 0 0.0 0.060
16 21:00 56.2 54.8 95 SSW 3 G 4 29.82 1009.7 0.00 0 0.0 0.060
16 20:00 57.5 56.1 58.0 56.8 95 W 3 G 9 29.81 1009.5 0.00 7 0.0 0.059
16 19:00 57.7 56.3 95 WSW 5 G 9 29.81 1009.4 0.00 51 0.0 0.058
16 18:00 57.1 55.7 95 W 6 G 11 29.82 1009.8 0.00 56 0.0 0.056
16 17:00 57.3 55.6 94 WSW 4 G 8 29.82 1009.9 0.00 156 1.0 0.053
16 16:00 57.3 55.6 94 W 6 G 8 29.82 1010.0 0.00 88 0.8 0.051
16 15:00 57.3 55.3 93 W 5 G 10 29.83 1010.3 0.00 121 1.1 0.048
16 14:00 57.0 54.7 60.6 55.6 92 WSW 3 G 7 29.84 1010.4 0.00 128 1.2 0.045
16 13:00 56.2 53.6 91 SSW 6 G 10 29.84 1010.6 0.00 125 1.2 0.042
16 12:00 57.9 54.7 89 SW 6 G 8 29.84 1010.7 0.00 204 1.9 0.035
16 11:00 60.5 57.2 89 SW 3 G 5 29.83 1010.4 0.00 515 4.1 0.023
16 10:00 58.0 55.1 90 W 4 G 10 29.85 1010.9 0.00 352 2.7 0.017
16 09:00 58.1 55.2 90 WSW 3 G 10 29.84 1010.7 0.00 315 2.0 0.012
16 08:00 57.6 55.0 57.6 55.8 91 WSW 6 G 9 29.84 1010.7 0.00 174 1.0 0.009
16 07:00 56.7 54.1 91 WSW 7 G 13 29.83 1010.3 0.00 98 0.6 0.007
16 06:00 56.6 53.4 89 WSW 6 G 12 29.83 1010.0 0.00 26 0.0 0.006
16 05:00 56.8 53.3 88 WSW 11 G 16 29.81 1009.5 0.00 0 0.0 0.005
16 04:00 56.6 52.8 87 W 10 G 15 29.81 1009.4 0.00 0 0.0 0.004
16 03:00 56.1 52.3 87 WSW 7 G 15 29.79 1008.9 0.00 0 0.0 0.003
16 02:00 55.9 52.1 59.1 55.6 87 WSW 9 G 14 29.78 1008.7 0.00 0 0.0 0.002
16 01:00 56.8 52.3 85 SW 15 G 23 29.79 1008.9 0.00 0 0.0 0.000
16 00:00 57.3 52.5 84 SW 19 G 24 29.81 1009.3 0.00 0 0.0 0.181
15 23:00 58.4 53.3 83 SSW 20 G 26 29.81 1009.5 0.00 0 0.0 0.178
15 22:00 58.7 53.6 83 SSW 19 G 26 29.83 1010.1 0.00 0 0.0 0.176
15 21:00 58.5 53.4 83 SSW 18 G 23 29.83 1010.4 0.00 0 0.0 0.173
15 20:00 58.8 53.0 63.2 58.8 81 SSW 22 G 27 29.84 1010.5 0.00 14 0.0 0.168
15 19:00 60.1 53.9 80 SSW 23 G 28 29.85 1010.8 0.00 128 0.0 0.160
15 18:00 59.3 53.8 82 S 15 G 20 29.87 1011.4 0.00 413 0.9 0.147
15 17:00 60.5 54.0 79 S 19 G 24 29.89 1012.1 0.00 599 2.0 0.130
15 16:00 60.6 54.4 80 S 15 G 18 29.92 1013.1 0.00 803 3.4 0.110
15 15:00 61.7 54.8 78 S 14 G 17 29.94 1013.8 0.00 900 5.0 0.089
15 14:00 61.9 56.7 61.9 55.9 83 SSW 5 G 12 29.95 1014.4 0.00 997 5.5 0.067
15 13:00 60.7 56.2 85 SW 8 G 12 29.98 1015.2 0.00 1025 6.9 0.045
15 12:00 59.3 55.1 86 SW 8 G 12 30.00 1016.0 0.00 1130 7.0 0.025
15 11:00 58.8 54.6 86 SW 6 G 14 30.01 1016.2 0.00 984 6.0 0.009
15 10:00 58.0 54.5 88 SW 7 G 12 30.01 1016.2 0.00 756 2.2 0.007
15 09:00 56.0 52.5 88 WSW 3 G 8 30.02 1016.7 0.00 47 0.0 0.006
15 08:00 57.1 53.3 57.7 53.3 87 WSW 3 G 7 30.02 1016.5 0.00 40 0.0 0.005
15 07:00 55.4 51.9 88 SSW 6 G 9 30.00 1015.9 0.00 37 0.0 0.004
15 06:00 55.2 51.7 88 W 7 G 14 29.98 1015.3 0.00 63 0.0 0.003
15 05:00 53.4 50.5 90 WSW 4 G 8 29.95 1014.3 0.00 5 0.0 0.003
15 04:00 53.7 50.8 90 WSW 5 G 11 29.92 1013.4 0.00 0 0.0 0.002
15 03:00 54.1 50.9 89 W 5 G 9 29.90 1012.6 0.00 0 0.0 0.001
15 02:00 54.1 51.2 58.8 53.7 90 WSW 4 G 9 29.87 1011.6 0.00 0 0.0 0.001
15 01:00 55.9 52.1 87 W 2 G 3 29.85 1010.8 0.00 0 0.0 0.000
15 00:00 55.5 52.3 89 W 4 G 10 29.84 1010.6 0.00 0 0.0 0.122
14 23:00 58.8 54.0 84 W 8 G 10 29.83 1010.0 0.00 0 0.0 0.121
14 22:00 56.3 53.1 89 WSW 3 G 4 29.81 1009.6 0.00 0 0.0 0.120
14 21:00 55.6 53.0 91 W 8 G 10 29.78 1008.6 0.00 0 0.0 0.120
14 20:00 55.5 52.6 60.8 55.5 90 S 4 G 6 29.77 1008.0 0.00 7 0.0 0.119
14 19:00 56.6 53.7 90 SW 3 G 8 29.75 1007.6 0.00 21 0.0 0.117
14 18:00 58.7 54.8 87 S 9 G 12 29.73 1006.9 0.00 446 0.9 0.112
14 17:00 60.8 56.6 86 SW 5 G 11 29.74 1007.0 0.00 446 1.3 0.099
14 16:00 58.7 55.5 89 S 4 G 7 29.73 1006.8 0.00 765 3.3 0.087
14 15:00 60.6 57.3 89 SW 3 G 10 29.75 1007.3 0.00 990 4.9 0.067
14 14:00 60.0 56.8 60.0 52.2 89 SSW 7 G 11 29.75 1007.6 0.00 1058 5.8 0.046
14 13:00 58.2 55.6 91 SSW 11 G 14 29.76 1008.0 0.00 1116 7.0 0.029
14 12:00 56.1 53.8 92 SSW 12 G 14 29.75 1007.6 0.00 457 3.6 0.020
14 11:00 54.7 53.0 94 SSW 11 G 16 29.76 1007.8 0.00 413 3.1 0.013
14 10:00 55.1 54.0 96 SSW 13 G 16 29.76 1007.9 0.00 789 3.2 0.007
14 09:00 53.7 52.6 96 SSW 9 G 12 29.77 1008.1 0.00 287 1.7 0.004
14 08:00 52.3 51.2 53.3 51.3 96 SW 5 G 10 29.76 1008.0 0.00 102 0.8 0.002

Data generated by WxSolution Version 1.9.1.5, Build 2018.05.20.